Ilias — SW3165 — position and weather

sailwx.info

Track history (hours):
 
Tides and Currents Weather Stations Pressure Air Temp Water Temp Dewpoint Dewpoint Depression Visibility Wind Speed Wind Dir Waves Ship Positions

Ilias

Last reported at 2017-Nov-11 01:38 UTC. Time now 2017-Dec-13 22:44 UTC.
Position N 39°60' E 024°07'.
Warning: this ship's position is 32 days out of date.

Length 22 m; draft 1.9 m.

Type: Fishing. MMSI: 239022000.

Date/timePositionNaut miles runAvg speedWind from/ knotsBaromVisibWave heightAir tempDewpointWater temp
2017-Nov-11 01:38N 39°60' E 024°07'2 9.7
2017-Nov-11 01:28N 40°01' E 024°08'5 9.9
2017-Nov-11 00:59N 40°03' E 024°14'6 9.8
2017-Nov-11 00:21N 40°06' E 024°21'4 9.9
2017-Nov-11 00:00N 40°08' E 024°24'510.2
2017-Nov-10 23:30N 40°13' E 024°22'510.8
2017-Nov-10 23:00N 40°17' E 024°18'510.3
2017-Nov-10 22:30N 40°21' E 024°13'  
2017-Nov-07 17:55N 40°36' E 023°59'0 0.3
2017-Nov-07 16:26N 40°36' E 023°59'0 0.4
2017-Nov-07 15:57N 40°36' E 023°59'  
2017-Nov-02 15:02N 40°47' E 024°18'0 9.9
2017-Nov-02 15:00N 40°47' E 024°18'4 7.7
2017-Nov-02 14:30N 40°51' E 024°19'  
Track history (hours):
 
Tides and Currents Weather Stations Pressure Air Temp Water Temp Dewpoint Dewpoint Depression Visibility Wind Speed Wind Dir Waves Ship Positions

Ilias

Last reported at 2017-Nov-11 01:38 UTC. Time now 2017-Dec-13 22:44 UTC.
Position N 39°60' E 024°07'.
Warning: this ship's position is 32 days out of date.

Length 22 m; draft 1.9 m.

Type: Fishing. MMSI: 239022000.

Date/timePositionNaut miles runAvg speedWind from/ knotsBaromVisibWave heightAir tempDewpointWater temp
2017-Nov-11 01:38N 39°60' E 024°07'2 9.7
2017-Nov-11 01:28N 40°01' E 024°08'5 9.9
2017-Nov-11 00:59N 40°03' E 024°14'6 9.8
2017-Nov-11 00:21N 40°06' E 024°21'4 9.9
2017-Nov-11 00:00N 40°08' E 024°24'510.2
2017-Nov-10 23:30N 40°13' E 024°22'510.8
2017-Nov-10 23:00N 40°17' E 024°18'510.3
2017-Nov-10 22:30N 40°21' E 024°13'  
2017-Nov-07 17:55N 40°36' E 023°59'0 0.3
2017-Nov-07 16:26N 40°36' E 023°59'0 0.4
2017-Nov-07 15:57N 40°36' E 023°59'  
2017-Nov-02 15:02N 40°47' E 024°18'0 9.9
2017-Nov-02 15:00N 40°47' E 024°18'4 7.7
2017-Nov-02 14:30N 40°51' E 024°19'  

Dump ship's entire track history